Strona główna
METAR-TAF:

METAR-TAF

Lotnisko :

Port lotniczy Kapsztad

Kapsztad, Południowa Afryka

Szerokość geograficzna: 33-59S, Długość geograficzna: 018-36E, wysokość: 42 m

Aktualna obserwacja pogody

Raport powstał 44 minut temu, godzina 22:00 UTC
Wiatr 9 kt od południe
Temperatura 18°C
Wilgotność 73%
Ciśnienie 1020 hPa
Widzialność 10 km lub więcej
Brak chmur poniżej 1500 m i brak chmur cumulonimbus

METAR: FACT 092200Z 19009KT CAVOK 18/13 Q1020 NOSIG

czas: 00:44 (22:44 UTC)

Prognoza

Raport powstał 6 godziny i 44 minut temu, godzina 16:00 UTC
Prognoza ważna od 09 godzina 18 UTC do 10 godzina 24 UTC
Wiatr 22 kt od południe
Widzialność 10 km lub więcej
Mało chmury na wysokości 3500 ft
Od 09 godzina 2100 UTC
Wiatr 8 kt od południowy wschód
Widzialność 10 km lub więcej
Brak chmur poniżej 1500 m i brak chmur cumulonimbus

TAF: FACT 091600Z 0918/1024 18022KT 9999 FEW035 FM092100 14008KT CAVOK TX28/1012Z TN15/1004Z

Obserwacja i prognoza pogody dla ponad 4000 lotnisk (raport METAR i TAF).

Dostępne stacje oznaczono żółtymi i czerwonymi punktami na mapie.

Najedź kursorem aby zobaczyć nazwę stacji.

Kliknij aby zobaczyć obserwacje i prognozy pogody.

Aby zmienić mapę: kliknij na zielony przycisk z czarnym krzyżykiem, aby powiększyć; na zielony przycisk z myślnikiem, aby pomniejszyć; na zielone strzałki, aby przejść do map sąsiednich.


METAR-TAF: